Time;durP1;ratioP1;P1;durP2;ratioP2;P2;SDS_P1;SDS_P2;PMS_P1;PMS_P2;Temp;Humidity;BMP_temperature;BMP_pressure;BME280_temperature;BME280_humidity;BME280_pressure;Samples;Min_cycle;Max_cycle;Signal;HPM_P1;HPM_P2
2023/04/26 00:02:11;;;;;;;7.20;5.35;;;;;;;13.30;83.29;150630.72;5123191;28;20038;-66
2023/04/26 00:04:39;;;;;;;7.43;5.68;;;;;;;13.29;83.34;150629.41;5107082;28;20023;-66
2023/04/26 00:07:06;;;;;;;6.25;5.63;;;;;;;13.34;83.05;150641.00;5102934;28;20032;-65
2023/04/26 00:09:32;;;;;;;6.93;5.70;;;;;;;13.24;84.08;150616.59;5109450;28;20046;-66
2023/04/26 00:11:57;;;;;;;6.30;5.32;;;;;;;13.26;84.01;150620.44;5123228;28;20356;-66
2023/04/26 00:14:23;;;;;;;9.05;5.53;;;;;;;13.33;82.83;150638.44;5123537;28;20043;-67
2023/04/26 00:16:49;;;;;;;6.15;5.32;;;;;;;13.26;83.62;150620.44;5123405;28;20031;-66
2023/04/26 00:19:15;;;;;;;7.85;5.35;;;;;;;13.23;84.06;150614.00;5110678;28;20023;-66
2023/04/26 00:21:41;;;;;;;6.13;5.10;;;;;;;13.21;83.09;150608.88;5110844;28;20031;-65
2023/04/26 00:24:07;;;;;;;6.70;5.28;;;;;;;13.11;83.18;150584.47;5123244;28;20035;-64
2023/04/26 00:26:33;;;;;;;5.80;4.78;;;;;;;13.21;84.09;150608.88;5105408;28;20091;-64
2023/04/26 00:29:00;;;;;;;6.70;4.95;;;;;;;13.14;83.68;150590.91;5104579;28;20075;-65
2023/04/26 00:31:25;;;;;;;7.00;4.55;;;;;;;13.06;83.54;150570.34;5106937;28;20305;-64
2023/04/26 00:33:51;;;;;;;5.68;4.13;;;;;;;13.25;83.95;150619.19;5120580;28;20024;-65
2023/04/26 00:36:18;;;;;;;5.10;4.60;;;;;;;13.21;84.96;150607.56;5107028;28;20282;-66
2023/04/26 00:38:47;;;;;;;6.72;4.90;;;;;;;13.24;83.38;150616.59;5123191;28;20024;-65
2023/04/26 00:41:13;;;;;;;7.10;4.80;;;;;;;13.21;83.90;150607.56;5102633;28;20024;-65
2023/04/26 00:43:39;;;;;;;6.47;4.75;;;;;;;13.20;84.30;150605.03;5118120;28;20076;-66
2023/04/26 00:46:07;;;;;;;6.72;5.20;;;;;;;13.05;85.37;150567.75;5115247;28;20103;-67
2023/04/26 00:48:33;;;;;;;5.22;4.80;;;;;;;13.15;84.29;150593.44;5112757;28;20015;-65
2023/04/26 00:51:00;;;;;;;5.18;4.50;;;;;;;13.10;84.90;150580.63;5124817;28;20076;-66
2023/04/26 00:53:26;;;;;;;5.78;5.20;;;;;;;13.12;84.72;150587.06;5105855;28;20039;-66
2023/04/26 00:55:52;;;;;;;6.13;5.25;;;;;;;13.13;84.38;150588.31;5123452;28;20023;-65
2023/04/26 00:58:19;;;;;;;5.82;4.57;;;;;;;13.16;83.89;150596.03;5107833;28;20042;-67
2023/04/26 01:00:45;;;;;;;5.70;5.15;;;;;;;13.06;84.03;150570.34;5126040;28;20456;-67
2023/04/26 01:03:11;;;;;;;6.10;4.32;;;;;;;13.06;84.88;150570.34;5123080;28;20024;-66
2023/04/26 01:05:39;;;;;;;6.38;5.20;;;;;;;12.97;85.03;150547.19;5106592;28;20032;-66
2023/04/26 01:08:05;;;;;;;8.88;5.40;;;;;;;13.12;84.45;150587.06;5126167;28;20062;-65
2023/04/26 01:10:35;;;;;;;7.60;4.78;;;;;;;13.01;84.82;150557.47;5111507;28;20081;-65
2023/04/26 01:13:02;;;;;;;7.07;5.05;;;;;;;13.05;85.03;150567.75;5105048;28;20032;-65
2023/04/26 01:15:29;;;;;;;6.80;4.70;;;;;;;13.03;85.09;150562.63;5126633;28;20034;-65
2023/04/26 01:17:56;;;;;;;7.07;5.10;;;;;;;13.06;84.75;150571.59;5125944;28;20273;-66
2023/04/26 01:20:23;;;;;;;7.97;5.07;;;;;;;12.90;86.38;150530.50;5126304;28;20027;-65
2023/04/26 01:22:48;;;;;;;7.03;4.70;;;;;;;12.96;85.79;150545.91;5108107;28;20279;-67
2023/04/26 01:25:15;;;;;;;5.82;4.90;;;;;;;12.90;85.52;150531.78;5099327;28;20028;-66
2023/04/26 01:27:40;;;;;;;10.10;5.32;;;;;;;12.93;85.27;150538.22;5118192;28;20099;-65
2023/04/26 01:30:07;;;;;;;6.03;4.88;;;;;;;13.00;86.04;150554.88;5089851;28;20024;-66
2023/04/26 01:32:33;;;;;;;5.63;4.50;;;;;;;12.94;86.31;150540.78;5125498;28;20039;-67
2023/04/26 01:34:59;;;;;;;6.47;5.15;;;;;;;12.95;85.58;150544.66;5096306;28;20016;-67
2023/04/26 01:37:25;;;;;;;8.25;5.30;;;;;;;12.87;86.33;150522.75;5111979;28;20099;-67
2023/04/26 01:39:51;;;;;;;6.63;4.43;;;;;;;12.91;86.28;150533.06;5104768;28;20024;-68
2023/04/26 01:42:17;;;;;;;5.35;4.85;;;;;;;12.68;86.83;150476.53;5105032;28;20103;-67
2023/04/26 01:44:42;;;;;;;6.30;5.00;;;;;;;12.87;87.35;150522.75;5104971;28;20034;-67
2023/04/26 01:47:08;;;;;;;7.55;5.13;;;;;;;12.81;87.09;150508.63;5124346;28;20023;-66
2023/04/26 01:49:33;;;;;;;9.50;5.05;;;;;;;12.74;87.62;150491.97;5111032;28;20027;-67
2023/04/26 01:52:00;;;;;;;5.85;4.72;;;;;;;12.64;87.92;150464.97;5114658;28;20253;-69
2023/04/26 01:54:26;;;;;;;7.55;4.70;;;;;;;12.73;87.51;150489.38;5120806;28;20044;-67
2023/04/26 01:56:52;;;;;;;4.80;4.32;;;;;;;12.72;88.12;150485.53;5104210;28;20308;-67
2023/04/26 01:59:17;;;;;;;6.28;4.97;;;;;;;12.73;88.14;150489.38;5125298;28;20027;-67
2023/04/26 02:01:43;;;;;;;4.80;4.03;;;;;;;12.59;88.38;150453.44;5109299;28;20043;-66
2023/04/26 02:04:09;;;;;;;4.85;4.35;;;;;;;12.62;88.76;150459.84;5097624;28;20023;-67
2023/04/26 02:06:35;;;;;;;8.60;4.85;;;;;;;12.46;89.13;150420.06;5125041;28;20043;-66
2023/04/26 02:09:00;;;;;;;6.90;4.82;;;;;;;12.53;89.02;150439.28;5123784;28;20051;-65
2023/04/26 02:11:26;;;;;;;5.32;4.53;;;;;;;12.65;88.51;150468.81;5104741;28;20023;-67
2023/04/26 02:13:52;;;;;;;5.95;4.43;;;;;;;12.70;88.56;150480.41;5121495;28;20041;-68
2023/04/26 02:16:18;;;;;;;6.88;4.75;;;;;;;12.73;88.39;150488.13;5124945;28;20031;-68
2023/04/26 02:18:44;;;;;;;6.13;5.18;;;;;;;12.75;88.97;150494.53;5124465;28;20031;-67
2023/04/26 02:21:12;;;;;;;6.43;4.43;;;;;;;12.65;88.95;150468.81;5089304;28;20019;-68
2023/04/26 02:23:38;;;;;;;5.82;5.10;;;;;;;12.64;88.90;150464.97;5123301;28;20027;-67
2023/04/26 02:26:04;;;;;;;6.65;4.72;;;;;;;12.58;89.91;150452.16;5108987;28;20031;-69
2023/04/26 02:28:30;;;;;;;4.78;4.22;;;;;;;12.55;89.14;150444.41;5110619;28;20043;-68
2023/04/26 02:30:57;;;;;;;5.25;4.60;;;;;;;12.39;90.06;150404.59;5112676;28;20039;-67
2023/04/26 02:33:22;;;;;;;5.97;4.53;;;;;;;12.47;90.79;150423.91;5124155;28;20098;-68
2023/04/26 02:35:48;;;;;;;7.90;5.10;;;;;;;12.39;90.07;150403.34;5124149;28;20489;-67
2023/04/26 02:38:14;;;;;;;5.68;4.90;;;;;;;12.32;90.55;150386.63;5104249;28;20024;-67
2023/04/26 02:40:39;;;;;;;6.65;4.60;;;;;;;12.44;90.26;150416.16;5118496;28;20027;-68
2023/04/26 02:43:06;;;;;;;4.85;4.35;;;;;;;12.45;90.29;150417.47;5095723;28;20027;-69
2023/04/26 02:45:31;;;;;;;4.20;3.90;;;;;;;12.45;90.99;150418.72;5103410;28;20053;-68
2023/04/26 02:47:57;;;;;;;4.60;4.15;;;;;;;12.42;90.45;150411.03;5103887;28;20116;-68
2023/04/26 02:50:22;;;;;;;4.80;4.22;;;;;;;12.46;90.28;150420.06;5106768;28;20029;-65
2023/04/26 02:52:48;;;;;;;6.82;4.30;;;;;;;12.48;89.69;150426.44;5107893;28;20053;-65
2023/04/26 02:55:14;;;;;;;4.45;4.05;;;;;;;12.46;89.69;150421.31;5102693;28;20040;-65
2023/04/26 02:57:39;;;;;;;6.15;4.47;;;;;;;12.48;90.85;150425.16;5091962;28;20019;-65
2023/04/26 03:00:06;;;;;;;4.95;4.45;;;;;;;12.34;90.32;150391.78;5105671;28;20111;-68
2023/04/26 03:02:32;;;;;;;5.30;4.18;;;;;;;12.39;90.50;150403.34;5123485;28;20403;-67
2023/04/26 03:04:58;;;;;;;7.07;4.40;;;;;;;12.42;91.00;150411.03;5106282;28;20036;-68
2023/04/26 03:07:23;;;;;;;5.35;4.57;;;;;;;12.49;90.33;150429.00;5103086;28;20027;-67
2023/04/26 03:09:49;;;;;;;5.10;4.60;;;;;;;12.49;90.89;150429.00;5110744;28;20019;-68
2023/04/26 03:12:15;;;;;;;4.32;3.88;;;;;;;12.52;90.75;150435.44;5123362;28;20224;-68
2023/04/26 03:14:40;;;;;;;4.47;4.07;;;;;;;12.56;90.60;150447.00;5123288;28;20030;-68
2023/04/26 03:17:06;;;;;;;4.30;3.85;;;;;;;12.33;91.32;150389.22;5123105;28;20016;-67
2023/04/26 03:19:32;;;;;;;7.25;4.63;;;;;;;12.42;90.41;150412.31;5123556;28;20023;-67
2023/04/26 03:21:58;;;;;;;4.60;4.18;;;;;;;12.50;91.17;150430.28;5115316;28;20028;-66
2023/04/26 03:24:23;;;;;;;6.35;4.82;;;;;;;12.35;91.51;150394.34;5107226;28;20030;-69
2023/04/26 03:26:49;;;;;;;4.03;3.63;;;;;;;12.28;90.34;150376.34;5123310;28;20023;-67
2023/04/26 03:29:15;;;;;;;3.63;3.33;;;;;;;12.57;90.53;150448.31;5104273;28;20031;-67
2023/04/26 03:31:41;;;;;;;3.97;3.58;;;;;;;12.59;89.99;150454.69;5117529;28;20297;-67
2023/04/26 03:34:07;;;;;;;4.10;3.67;;;;;;;12.57;90.10;150449.56;5123317;28;20024;-67
2023/04/26 03:36:33;;;;;;;4.88;3.53;;;;;;;12.61;90.40;150458.53;5123542;28;20027;-68
2023/04/26 03:38:59;;;;;;;4.97;3.78;;;;;;;12.50;91.18;150430.28;5122956;28;20027;-69
2023/04/26 03:41:24;;;;;;;5.55;5.00;;;;;;;12.33;91.53;150387.94;5103067;28;20352;-71
2023/04/26 03:43:53;;;;;;;4.07;3.35;;;;;;;12.52;90.64;150435.44;5118789;28;20069;-71
2023/04/26 03:46:19;;;;;;;3.38;3.08;;;;;;;12.40;90.41;150405.94;5111854;28;20032;-69
2023/04/26 03:48:44;;;;;;;3.22;2.92;;;;;;;12.61;91.02;150458.53;5109617;28;20030;-67
2023/04/26 03:51:10;;;;;;;4.40;3.65;;;;;;;12.37;91.11;150398.19;5121859;28;20320;-67
2023/04/26 03:53:36;;;;;;;4.47;2.90;;;;;;;12.28;90.38;150375.09;5102842;28;20032;-67
2023/04/26 03:56:01;;;;;;;3.20;2.90;;;;;;;12.56;91.20;150447.00;5102377;28;20039;-67
2023/04/26 03:58:28;;;;;;;3.10;2.85;;;;;;;12.56;91.45;150445.72;5111492;28;20038;-69
2023/04/26 04:00:57;;;;;;;3.75;3.10;;;;;;;12.60;91.91;150456.00;5123372;28;20244;-69
2023/04/26 04:03:23;;;;;;;3.65;3.03;;;;;;;12.55;90.46;150444.41;5119966;28;20078;-69
2023/04/26 04:05:48;;;;;;;4.78;2.90;;;;;;;12.62;89.91;150461.13;5103145;28;20087;-68
2023/04/26 04:08:14;;;;;;;3.67;3.30;;;;;;;12.50;91.41;150431.59;5121760;28;20066;-67
2023/04/26 04:10:41;;;;;;;4.07;3.22;;;;;;;12.52;91.32;150436.72;5108891;28;20020;-67
2023/04/26 04:13:07;;;;;;;4.07;3.67;;;;;;;12.37;91.42;150398.19;5110063;28;20309;-67
2023/04/26 04:15:33;;;;;;;3.35;3.05;;;;;;;12.68;91.65;150476.53;5123183;28;20035;-68
2023/04/26 04:17:58;;;;;;;4.97;3.20;;;;;;;12.57;90.12;150449.56;5123081;28;20098;-68
2023/04/26 04:20:24;;;;;;;2.88;2.67;;;;;;;12.34;89.85;150390.47;5125633;28;20031;-68
2023/04/26 04:22:50;;;;;;;29.30;26.15;;;;;;;12.82;90.26;150511.22;5111416;28;20321;-66
2023/04/26 04:25:15;;;;;;;3.85;2.95;;;;;;;12.69;90.99;150477.84;5117129;28;20080;-68
2023/04/26 04:27:42;;;;;;;3.17;2.88;;;;;;;12.69;91.10;150479.09;5121184;28;20039;-67
2023/04/26 04:30:08;;;;;;;4.57;2.92;;;;;;;12.87;91.12;150524.06;5107652;28;20196;-67
2023/04/26 04:32:35;;;;;;;3.47;2.92;;;;;;;12.80;91.07;150506.09;5126534;28;20051;-68
2023/04/26 04:35:01;;;;;;;2.70;2.40;;;;;;;12.80;91.19;150504.78;5122145;28;20073;-67
2023/04/26 04:37:27;;;;;;;2.85;2.65;;;;;;;12.67;90.30;150472.66;5114764;28;20091;-69
2023/04/26 04:39:54;;;;;;;3.78;2.28;;;;;;;12.80;89.91;150506.09;5106255;28;20024;-68
2023/04/26 04:42:20;;;;;;;2.70;2.50;;;;;;;12.72;89.59;150485.53;5108853;28;20063;-68
2023/04/26 04:44:46;;;;;;;2.38;2.13;;;;;;;12.92;89.51;150536.91;5126251;28;20043;-67
2023/04/26 04:47:12;;;;;;;3.42;2.70;;;;;;;12.63;89.47;150462.38;5108393;28;20320;-67
2023/04/26 04:49:37;;;;;;;3.30;2.00;;;;;;;12.98;88.89;150551.03;5101179;28;20024;-67
2023/04/26 04:52:04;;;;;;;3.00;2.53;;;;;;;12.89;90.84;150527.94;5099805;28;20068;-69
2023/04/26 04:54:29;;;;;;;2.60;2.35;;;;;;;12.85;90.17;150518.91;5109834;28;20059;-68
2023/04/26 04:56:56;;;;;;;3.35;2.22;;;;;;;13.03;89.07;150563.91;5126549;28;20039;-67
2023/04/26 04:59:22;;;;;;;2.55;2.30;;;;;;;12.97;89.00;150547.19;5109875;28;20031;-68
2023/04/26 05:01:48;;;;;;;9.57;2.45;;;;;;;12.95;89.61;150544.66;5118555;28;20026;-67
2023/04/26 05:04:14;;;;;;;2.40;2.20;;;;;;;13.16;89.35;150596.03;5116123;28;20077;-67
2023/04/26 05:06:40;;;;;;;3.20;2.10;;;;;;;13.04;90.42;150565.16;5092426;28;20024;-68
2023/04/26 05:09:05;;;;;;;4.57;2.30;;;;;;;12.41;89.26;150409.78;5125902;28;20054;-67
2023/04/26 05:11:34;;;;;;;4.28;2.30;;;;;;;12.99;89.56;150552.34;5125890;28;20027;-69
2023/04/26 05:14:00;;;;;;;3.05;2.30;;;;;;;12.94;89.03;150542.06;5120324;28;20043;-68
2023/04/26 05:16:26;;;;;;;3.97;2.17;;;;;;;13.03;89.61;150562.63;5125701;28;20382;-67
2023/04/26 05:18:52;;;;;;;1.98;1.88;;;;;;;13.03;90.29;150562.63;5125558;28;20024;-67
2023/04/26 05:21:18;;;;;;;7.70;7.00;;;;;;;13.06;90.35;150570.34;5123963;28;20038;-67
2023/04/26 05:23:43;;;;;;;3.80;2.20;;;;;;;12.80;88.88;150504.78;5105311;28;20265;-67
2023/04/26 05:26:14;;;;;;;4.85;2.28;;;;;;;12.86;90.16;150521.50;5123111;28;20073;-67
2023/04/26 05:28:40;;;;;;;4.57;2.28;;;;;;;13.25;88.75;150619.19;5112274;28;20036;-66
2023/04/26 05:31:08;;;;;;;5.60;2.30;;;;;;;13.22;89.33;150611.41;5112761;28;20020;-67
2023/04/26 05:33:33;;;;;;;3.67;2.20;;;;;;;13.08;89.32;150576.75;5125604;28;20055;-67
2023/04/26 05:36:00;;;;;;;3.00;2.15;;;;;;;13.29;88.27;150628.13;5125734;28;20051;-67
2023/04/26 05:38:26;;;;;;;4.60;2.10;;;;;;;13.10;89.04;150581.88;5105702;28;20030;-66
2023/04/26 05:40:52;;;;;;;4.88;2.10;;;;;;;13.29;89.08;150629.41;5119743;28;20054;-66
2023/04/26 05:43:17;;;;;;;2.63;1.73;;;;;;;12.69;89.26;150479.09;5114866;28;20289;-68
2023/04/26 05:45:53;;;;;;;2.70;2.05;;;;;;;13.11;88.66;150583.16;5091536;28;20079;-68
2023/04/26 05:48:23;;;;;;;4.72;2.10;;;;;;;13.24;88.98;150616.59;5122994;28;20055;-67
2023/04/26 05:50:50;;;;;;;3.75;2.35;;;;;;;13.17;89.56;150598.59;5104469;28;20032;-68
2023/04/26 05:53:16;;;;;;;2.65;1.95;;;;;;;13.25;90.56;150617.84;5103214;28;20055;-68
2023/04/26 05:55:42;;;;;;;4.20;1.80;;;;;;;13.27;89.73;150623.03;5117967;28;20100;-69
2023/04/26 05:58:09;;;;;;;2.72;2.30;;;;;;;13.32;89.88;150634.56;5116497;28;20020;-68
2023/04/26 06:00:35;;;;;;;3.92;1.98;;;;;;;13.12;89.18;150587.06;5108474;28;20027;-68
2023/04/26 06:03:01;;;;;;;4.40;2.13;;;;;;;13.28;89.24;150626.88;5125329;28;20050;-68
2023/04/26 06:05:27;;;;;;;3.35;2.00;;;;;;;13.36;89.04;150646.19;5105215;28;20319;-69
2023/04/26 06:07:53;;;;;;;3.05;2.05;;;;;;;13.24;89.29;150616.59;5103151;28;20028;-69
2023/04/26 06:10:19;;;;;;;5.97;2.15;;;;;;;13.42;88.94;150660.31;5114345;28;20031;-69
2023/04/26 06:12:46;;;;;;;2.05;1.85;;;;;;;13.37;90.21;150648.75;5108054;28;20027;-69
2023/04/26 06:15:13;;;;;;;1.98;1.83;;;;;;;13.21;88.21;150607.56;5124583;28;20026;-70
2023/04/26 06:17:39;;;;;;;3.70;2.20;;;;;;;13.23;89.46;150612.75;5124407;28;20020;-67
2023/04/26 06:20:06;;;;;;;3.38;2.20;;;;;;;13.43;89.67;150662.91;5124355;28;20035;-67
2023/04/26 06:22:32;;;;;;;3.25;2.10;;;;;;;13.44;90.12;150665.50;5094757;28;20093;-68
2023/04/26 06:24:57;;;;;;;2.60;2.40;;;;;;;13.44;89.17;150666.75;5110932;28;20219;-68
2023/04/26 06:27:23;;;;;;;2.33;2.10;;;;;;;13.42;89.07;150660.31;5124168;28;20040;-67
2023/04/26 06:29:50;;;;;;;5.47;2.25;;;;;;;13.41;88.64;150657.72;5124341;28;20206;-69
2023/04/26 06:32:15;;;;;;;3.35;1.80;;;;;;;13.43;89.50;150664.16;5117728;28;20032;-67
2023/04/26 06:34:42;;;;;;;3.00;1.75;;;;;;;13.44;89.81;150665.50;5099042;28;20277;-66
2023/04/26 06:37:08;;;;;;;2.08;1.88;;;;;;;13.37;89.02;150647.50;5103834;28;20354;-67
2023/04/26 06:39:34;;;;;;;4.32;2.55;;;;;;;13.45;88.81;150668.03;5103662;28;20024;-68
2023/04/26 06:42:00;;;;;;;2.83;2.08;;;;;;;13.50;88.51;150679.63;5103996;28;20074;-69
2023/04/26 06:44:26;;;;;;;4.13;2.38;;;;;;;13.44;89.81;150665.50;5123199;28;20068;-68
2023/04/26 06:46:54;;;;;;;3.50;2.20;;;;;;;13.44;89.92;150666.75;5123541;28;20291;-69
2023/04/26 06:49:20;;;;;;;1.90;1.70;;;;;;;13.37;89.20;150647.50;5124318;28;20024;-68
2023/04/26 06:51:46;;;;;;;2.05;1.85;;;;;;;13.49;88.01;150678.31;5124141;28;20080;-67
2023/04/26 06:54:12;;;;;;;2.03;1.60;;;;;;;13.49;87.81;150678.31;5123934;28;20215;-68
2023/04/26 06:56:37;;;;;;;3.92;1.80;;;;;;;13.30;90.22;150632.00;5102736;28;20030;-68
2023/04/26 06:59:05;;;;;;;3.83;2.10;;;;;;;12.99;89.05;150552.34;5113331;28;20020;-68
2023/04/26 07:01:34;;;;;;;2.75;1.95;;;;;;;13.36;88.53;150644.91;5111645;28;20095;-69
2023/04/26 07:04:06;;;;;;;4.75;2.20;;;;;;;13.34;87.48;150639.69;5109418;28;20034;-69
2023/04/26 07:06:32;;;;;;;2.25;2.05;;;;;;;13.25;88.54;150619.19;5120911;28;20107;-67
2023/04/26 07:08:59;;;;;;;2.45;1.80;;;;;;;13.30;89.34;150632.00;5103381;28;20088;-68
2023/04/26 07:11:25;;;;;;;2.85;2.50;;;;;;;13.12;88.55;150585.72;5102674;28;20046;-69
2023/04/26 07:13:50;;;;;;;5.43;2.08;;;;;;;13.28;88.50;150626.88;5117128;28;20023;-68
2023/04/26 07:16:16;;;;;;;2.10;2.00;;;;;;;13.15;89.68;150592.16;5114776;28;20031;-70
2023/04/26 07:18:42;;;;;;;2.53;2.33;;;;;;;13.03;89.32;150562.63;5115692;28;20020;-68
2023/04/26 07:21:08;;;;;;;3.38;2.50;;;;;;;12.87;90.66;150522.75;5084971;28;20312;-68
2023/04/26 07:23:33;;;;;;;3.92;2.42;;;;;;;12.91;90.92;150534.38;5103236;28;20024;-67
2023/04/26 07:26:05;;;;;;;2.53;2.33;;;;;;;13.07;90.89;150572.91;5118264;28;20032;-68
2023/04/26 07:28:31;;;;;;;;;;;;;;;13.24;89.18;150616.59;5112850;28;20039;-68
2023/04/26 07:30:58;;;;;;;2.67;2.22;;;;;;;13.26;90.49;150620.44;5103638;28;19912;-68
2023/04/26 07:33:23;;;;;;;3.80;2.80;;;;;;;13.18;89.26;150599.88;5123630;28;20140;-68
2023/04/26 07:35:54;;;;;;;4.28;2.60;;;;;;;13.23;90.16;150612.75;5123637;28;20027;-71
2023/04/26 07:38:20;;;;;;;3.03;2.80;;;;;;;13.34;90.63;150641.00;5105559;28;20054;-69
2023/04/26 07:40:45;;;;;;;3.13;2.67;;;;;;;13.07;89.52;150572.91;5123418;28;20084;-69
2023/04/26 07:43:12;;;;;;;2.63;2.38;;;;;;;13.01;89.48;150557.47;5115486;28;20028;-68
2023/04/26 07:45:37;;;;;;;2.47;2.28;;;;;;;13.40;89.47;150655.19;5106625;28;20028;-68
2023/04/26 07:48:03;;;;;;;3.80;2.50;;;;;;;13.43;88.34;150664.16;5123871;28;20024;-68
2023/04/26 07:50:29;;;;;;;3.17;2.28;;;;;;;13.37;88.45;150647.50;5104703;28;20038;-68
2023/04/26 07:52:55;;;;;;;3.15;2.60;;;;;;;13.44;87.97;150665.50;5102928;28;20032;-68
2023/04/26 07:55:20;;;;;;;3.17;2.90;;;;;;;13.27;88.67;150624.28;5115118;28;20258;-70
2023/04/26 07:57:46;;;;;;;3.28;2.60;;;;;;;13.20;88.20;150606.31;5105922;28;20208;-67
2023/04/26 08:00:12;;;;;;;4.13;3.00;;;;;;;13.37;88.91;150647.50;5107203;28;20067;-68
2023/04/26 08:02:38;;;;;;;3.22;2.70;;;;;;;13.51;88.54;150682.16;5106426;28;20103;-68
2023/04/26 08:05:04;;;;;;;3.00;2.45;;;;;;;13.52;87.16;150686.00;5106577;28;20063;-68
2023/04/26 08:07:30;;;;;;;4.00;2.28;;;;;;;13.65;87.64;150718.16;5117176;28;20047;-68
2023/04/26 08:09:55;;;;;;;4.30;2.67;;;;;;;13.59;86.92;150704.00;5121434;28;20373;-68
2023/04/26 08:12:21;;;;;;;3.10;2.55;;;;;;;13.48;88.07;150675.72;5121328;28;20103;-69
2023/04/26 08:14:47;;;;;;;3.15;2.50;;;;;;;13.73;87.25;150737.44;5126859;28;20031;-70
2023/04/26 08:17:12;;;;;;;4.57;2.83;;;;;;;13.51;88.46;150683.47;5114894;28;20095;-68
2023/04/26 08:19:38;;;;;;;3.20;2.60;;;;;;;13.68;88.25;150725.91;5126792;28;20020;-67
2023/04/26 08:22:04;;;;;;;3.00;2.67;;;;;;;13.68;87.97;150724.59;5120525;28;20055;-68
2023/04/26 08:24:30;;;;;;;2.55;2.25;;;;;;;13.32;87.25;150634.56;5108617;28;20042;-68
2023/04/26 08:26:57;;;;;;;2.83;2.63;;;;;;;13.67;86.47;150723.31;5127087;28;20027;-70
2023/04/26 08:29:24;;;;;;;2.53;2.33;;;;;;;13.66;86.52;150719.47;5109251;28;20035;-70
2023/04/26 08:31:50;;;;;;;3.22;2.40;;;;;;;13.19;86.59;150602.44;5119470;28;20016;-68
2023/04/26 08:34:16;;;;;;;2.33;2.13;;;;;;;13.69;87.43;150728.44;5126948;28;20038;-69
2023/04/26 08:36:42;;;;;;;2.40;2.20;;;;;;;13.74;86.93;150740.03;5126962;28;20035;-67
2023/04/26 08:39:08;;;;;;;2.65;2.45;;;;;;;13.45;87.25;150669.34;5126703;28;20024;-69
2023/04/26 08:41:42;;;;;;;3.00;2.67;;;;;;;13.45;85.83;150669.34;5107650;28;20096;-69
2023/04/26 08:44:08;;;;;;;2.95;2.70;;;;;;;13.26;86.37;150621.72;5122144;28;20030;-68
2023/04/26 08:46:42;;;;;;;4.03;3.30;;;;;;;13.54;87.63;150689.88;5116189;28;20091;-68
2023/04/26 08:49:42;;;;;;;3.30;2.95;;;;;;;13.24;85.55;150616.59;5113175;28;20028;-68
2023/04/26 08:52:13;;;;;;;4.38;3.45;;;;;;;13.56;85.99;150696.31;5119400;28;20032;-68
2023/04/26 08:54:40;;;;;;;4.22;3.10;;;;;;;13.31;86.26;150633.31;5108869;28;20051;-68
2023/04/26 08:57:07;;;;;;;3.05;2.85;;;;;;;13.46;85.42;150671.88;5126280;28;20026;-70
2023/04/26 08:59:36;;;;;;;2.95;2.75;;;;;;;13.86;86.17;150770.88;5124418;28;20019;-68
2023/04/26 09:02:05;;;;;;;4.63;3.28;;;;;;;13.37;85.83;150648.75;5124525;28;20020;-67
2023/04/26 09:04:30;;;;;;;4.00;3.53;;;;;;;13.91;85.59;150782.41;5125935;28;20307;-70
2023/04/26 09:06:59;;;;;;;3.35;3.05;;;;;;;13.57;85.33;150698.88;5125319;28;20027;-69
2023/04/26 09:09:27;;;;;;;3.22;2.92;;;;;;;13.44;83.73;150665.50;5125617;28;20027;-69
2023/04/26 09:11:58;;;;;;;4.13;3.25;;;;;;;13.70;84.68;150729.75;5125555;28;20019;-68
2023/04/26 09:14:26;;;;;;;6.03;3.88;;;;;;;13.91;85.16;150783.72;5124679;28;20022;-69
2023/04/26 09:16:53;;;;;;;3.35;3.05;;;;;;;14.05;83.92;150818.47;5122656;28;20024;-69
2023/04/26 09:19:44;;;;;;;4.35;3.58;;;;;;;13.91;84.97;150782.41;5112234;28;20046;-68
2023/04/26 09:22:10;;;;;;;4.50;3.35;;;;;;;14.06;83.56;150821.00;5124753;28;20358;-68
2023/04/26 09:24:49;;;;;;;3.30;3.00;;;;;;;13.73;83.82;150738.72;5123157;28;20031;-68
2023/04/26 09:27:15;;;;;;;3.60;3.30;;;;;;;14.15;84.02;150842.84;5124093;28;20339;-68
2023/04/26 09:30:17;;;;;;;3.47;3.17;;;;;;;14.10;83.51;150830.03;5121750;28;20027;-66
2023/04/26 09:32:59;;;;;;;4.23;3.63;;;;;;;14.09;83.63;150828.69;5123903;28;20032;-68
2023/04/26 09:35:33;;;;;;;4.18;3.78;;;;;;;14.27;84.40;150872.47;5122161;28;20466;-68
2023/04/26 09:38:18;;;;;;;3.80;3.40;;;;;;;14.07;84.44;150823.59;5111379;28;20055;-68
2023/04/26 09:40:50;;;;;;;3.75;3.35;;;;;;;14.44;81.17;150914.91;5104825;28;20198;-68
2023/04/26 09:43:18;;;;;;;5.22;3.35;;;;;;;14.50;80.69;150930.31;5112256;28;20016;-67
2023/04/26 09:45:56;;;;;;;3.90;3.50;;;;;;;14.22;79.42;150860.84;5106877;28;20047;-67
2023/04/26 09:48:21;;;;;;;3.60;3.30;;;;;;;14.62;80.17;150959.94;5124924;28;20046;-69
2023/04/26 09:51:12;;;;;;;5.25;3.72;;;;;;;14.73;80.49;150988.25;5104467;28;20225;-66
2023/04/26 09:53:41;;;;;;;4.00;3.60;;;;;;;14.79;79.79;151002.41;5123330;28;20101;-66
2023/04/26 09:56:16;;;;;;;9.23;4.47;;;;;;;14.72;81.42;150985.72;5110333;28;20043;-65
2023/04/26 09:59:04;;;;;;;5.68;4.88;;;;;;;14.69;83.59;150977.94;5115410;28;20049;-66
2023/04/26 10:01:30;;;;;;;7.68;5.63;;;;;;;14.88;82.61;151025.59;5103017;28;20055;-66
2023/04/26 10:04:06;;;;;;;8.05;5.50;;;;;;;14.96;82.61;151046.19;5090649;28;20019;-66
2023/04/26 10:06:32;;;;;;;7.32;4.60;;;;;;;15.15;79.95;151093.75;5124761;28;20034;-67
2023/04/26 10:08:58;;;;;;;4.57;4.18;;;;;;;14.98;80.50;151050.03;5123080;28;20027;-66
2023/04/26 10:11:25;;;;;;;4.85;4.30;;;;;;;15.05;80.91;151066.72;5100566;28;20127;-66
2023/04/26 10:13:51;;;;;;;6.28;5.22;;;;;;;15.16;81.63;151095.03;5116441;28;20023;-66
2023/04/26 10:16:18;;;;;;;5.60;5.00;;;;;;;15.20;80.50;151105.34;5124116;28;20039;-67
2023/04/26 10:18:43;;;;;;;5.05;4.55;;;;;;;14.89;80.86;151028.13;5119384;28;20066;-66
2023/04/26 10:21:21;;;;;;;5.53;5.03;;;;;;;14.81;82.38;151008.84;5124190;28;20301;-66
2023/04/26 10:23:48;;;;;;;5.80;5.30;;;;;;;14.64;82.29;150966.38;5103945;28;20063;-67
2023/04/26 10:26:47;;;;;;;6.13;5.60;;;;;;;14.96;84.19;151044.84;5121149;28;20028;-66
2023/04/26 10:29:12;;;;;;;6.88;6.20;;;;;;;14.86;83.17;151020.41;5109387;28;20384;-68
2023/04/26 10:32:07;;;;;;;6.22;5.63;;;;;;;14.74;83.05;150990.84;5113805;28;20023;-68
2023/04/26 10:34:35;;;;;;;8.77;6.53;;;;;;;14.73;84.05;150988.25;5112887;28;20034;-68
2023/04/26 10:37:14;;;;;;;7.82;6.30;;;;;;;14.68;84.36;150975.41;5118704;28;20042;-68
2023/04/26 10:39:42;;;;;;;7.20;6.45;;;;;;;14.78;83.77;151001.13;5104213;28;20049;-68
2023/04/26 10:42:29;;;;;;;6.70;6.10;;;;;;;14.94;82.84;151041.00;5104313;28;20024;-68
2023/04/26 10:45:26;;;;;;;6.90;5.95;;;;;;;14.99;83.93;151053.88;5103230;28;20092;-67
2023/04/26 10:48:17;;;;;;;6.47;5.80;;;;;;;15.06;81.63;151070.59;5102551;28;20388;-67
2023/04/26 10:50:59;;;;;;;5.53;4.88;;;;;;;14.87;81.17;151021.72;5122443;28;20041;-67
2023/04/26 10:53:44;;;;;;;6.07;4.15;;;;;;;15.07;80.31;151071.91;5120866;28;20236;-69
2023/04/26 10:56:10;;;;;;;4.75;4.35;;;;;;;14.93;80.55;151037.16;5111640;28;20050;-68
2023/04/26 10:58:40;;;;;;;6.70;6.10;;;;;;;15.02;79.48;151060.28;5112821;28;20030;-67
2023/04/26 11:01:16;;;;;;;5.20;4.80;;;;;;;15.16;80.02;151095.03;5117662;28;20051;-67
2023/04/26 11:04:02;;;;;;;8.32;5.43;;;;;;;15.09;78.97;151078.34;5103144;28;20051;-67
2023/04/26 11:06:56;;;;;;;5.57;5.07;;;;;;;15.17;79.42;151097.63;5109202;28;20095;-67
2023/04/26 11:09:41;;;;;;;6.03;5.47;;;;;;;15.17;81.17;151097.63;5106265;28;20039;-67
2023/04/26 11:12:15;;;;;;;5.30;4.80;;;;;;;15.13;80.23;151087.31;5102973;28;20161;-67
2023/04/26 11:14:41;;;;;;;6.43;5.47;;;;;;;15.19;78.79;151102.75;5118713;28;20050;-67
2023/04/26 11:17:08;;;;;;;5.90;4.00;;;;;;;15.33;76.64;151138.84;5122896;28;20024;-67
2023/04/26 11:19:34;;;;;;;5.53;4.80;;;;;;;15.48;77.54;151174.88;5122812;28;20023;-68
2023/04/26 11:22:01;;;;;;;6.45;5.70;;;;;;;15.52;76.99;151185.16;5118638;28;20016;-67
2023/04/26 11:24:29;;;;;;;8.05;5.90;;;;;;;15.50;78.16;151180.00;5099005;28;20169;-68
2023/04/26 11:26:55;;;;;;;7.70;5.60;;;;;;;15.27;75.72;151122.09;5122212;28;20031;-69
2023/04/26 11:29:21;;;;;;;10.07;9.07;;;;;;;15.45;75.84;151168.41;5122708;28;20091;-69